10/05/05 - 19h:08mDenunciar

Mikoyan Gurevich Mig-21 Lancer B

Versão modernizada da aeronave mais produzida até hoje mundialmente. Nesta imagem, tirada a partir do cockpit traseiro, é possível ver claramente o HUD Repeater.



Imagem de Alexandru Trandafir, retirada do site

Jetphotos.net.





METAR SBPB 102200Z 04006KT 9999 FEW015 SCT300 29/26 Q1010=

Comentários (0)

Fotos postadas a mais de 15 dias não podem receber comentários.